Home > Products > Valid Products > TAF

000
FTUS45 KMSO 192327
TAFSMN
TAF
KSMN 192327Z 2000/2024 VRB03KT P6SM SCT120
      AMD NOT SKED=



000
FTUS45 KMSO 192327
TAFMSO
TAF
KMSO 192327Z 2000/2024 27006KT P6SM SKC
     FM201100 00000KT P6SM VCFG SKC
     FM201400 VRB04KT P6SM SKC=



000
FTUS45 KMSO 192327
TAFBTM
TAF
KBTM 192327Z 2000/2024 15006KT P6SM SKC
     FM202000 21008KT P6SM SKC=



000
FTUS45 KMSO 192327
TAFGPI
TAF
KGPI 192327Z 2000/2024 VRB05KT P6SM SCT150
     FM201000 00000KT P6SM VCFG SCT001
     FM201500 18006KT P6SM SKC=



000
FTUS45 KMSO 192327
TAFGPI
TAF
KGPI 192327Z 2000/2024 VRB05KT P6SM SCT150
     FM201000 00000KT P6SM VCFG SCT001
     FM201500 18006KT P6SM SKC=



000
FTUS45 KMSO 192327
TAFMSO
TAF
KMSO 192327Z 2000/2024 27006KT P6SM SKC
     FM201100 00000KT P6SM VCFG SKC
     FM201400 VRB04KT P6SM SKC=



000
FTUS45 KMSO 192327
TAFBTM
TAF
KBTM 192327Z 2000/2024 15006KT P6SM SKC
     FM202000 21008KT P6SM SKC=



000
FTUS45 KMSO 192327
TAFSMN
TAF
KSMN 192327Z 2000/2024 VRB03KT P6SM SCT120
      AMD NOT SKED=



000
FTUS45 KMSO 191720
TAFGPI
TAF
KGPI 191720Z 1918/2018 VRB05KT P6SM SKC
     FM201000 00000KT P6SM VCFG SCT001
     FM201500 VRB03KT P6SM SKC=



000
FTUS45 KMSO 191720
TAFSMN
TAF
KSMN 191720Z 1918/2018 VRB03KT P6SM SCT120
      AMD NOT SKED=



000
FTUS45 KMSO 191720
TAFMSO
TAF
KMSO 191720Z 1918/2018 VRB05KT P6SM SKC=



000
FTUS45 KMSO 191720
TAFBTM
TAF
KBTM 191720Z 1918/2018 VRB03KT P6SM SKC
     FM192000 22007KT P6SM SKC
     FM200100 VRB03KT P6SM SKC=



000
FTUS45 KMSO 191444 AAB
TAFGPI
TAF AMD
KGPI 191444Z 1915/2012 00000KT 1SM BR BKN001
      TEMPO 1915/1916 1/2SM FG OVC001
     FM191600 VRB03KT 3SM BR SCT001
     FM191700 17005KT P6SM FEW007=



000
FTUS45 KMSO 191407 AAA
TAFGPI
TAF AMD
KGPI 191407Z 1914/2012 00000KT 3SM BR BKN003
      TEMPO 1914/1915 1SM BR
     FM191500 VRB03KT 6SM BR SCT001
     FM191700 17005KT P6SM FEW007=



000
FTUS45 KMSO 191128
TAFMSO
TAF
KMSO 191128Z 1912/2012 VRB04KT 6SM BR SKC
     FM191400 VRB05KT P6SM SKC=



000
FTUS45 KMSO 191128
TAFGPI
TAF
KGPI 191128Z 1912/2012 00000KT 1/2SM FG VV002
     FM191500 00000KT 2SM BR BKN003
     FM191700 17005KT P6SM FEW007=



000
FTUS45 KMSO 191128
TAFBTM
TAF
KBTM 191128Z 1912/2012 VRB03KT P6SM SKC
     FM192000 22007KT P6SM SKC=



000
FTUS45 KMSO 191128
TAFSMN
TAF
KSMN 191128Z 1912/2012 VRB03KT P6SM SCT120
      AMD NOT SKED=



000
FTUS45 KMSO 190856 AAA
TAFGPI
TAF AMD
KGPI 190856Z 1909/2006 00000KT 1/2SM FG VV002
     FM191400 00000KT 3SM BR SKC
     FM191600 17005KT P6SM SKC=



000
FTUS45 KMSO 190520
TAFBTM
TAF
KBTM 190520Z 1906/2006 VRB03KT P6SM SKC
     FM192000 22007KT P6SM SKC=



000
FTUS45 KMSO 190520
TAFGPI
TAF
KGPI 190520Z 1906/2006 00000KT 6SM BR SKC
      TEMPO 1907/1909 3SM BR
     FM190900 00000KT P6SM VCFG SKC
     FM191400 17005KT P6SM SKC=



000
FTUS45 KMSO 190520
TAFMSO
TAF
KMSO 190520Z 1906/2006 VRB04KT P6SM SKC
     FM191000 00000KT P6SM VCFG SKC
     FM191400 VRB05KT P6SM SKC=



000
FTUS45 KMSO 190520
TAFSMN
TAF
KSMN 190520Z 1906/2006 VRB03KT P6SM SCT120
      AMD NOT SKED=



000
FTUS45 KMSO 182340
TAFBTM
TAF
KBTM 182340Z 1900/1924 30007KT P6SM SKC
     FM190100 15005KT P6SM SKC
     FM192000 22007KT P6SM SKC=



000
FTUS45 KMSO 182340
TAFMSO
TAF
KMSO 182340Z 1900/1924 VRB04KT P6SM SCT080
     FM191000 00000KT P6SM VCFG SKC
     FM191400 VRB05KT P6SM SKC=



000
FTUS45 KMSO 182340
TAFSMN
TAF
KSMN 182340Z 1900/1924 VRB03KT P6SM SCT120
      AMD NOT SKED=



000
FTUS45 KMSO 182340
TAFGPI
TAF
KGPI 182340Z 1900/1924 21006KT P6SM SCT080
     FM190900 00000KT P6SM VCFG SKC
     FM191400 17005KT P6SM SKC=



000
FTUS45 KMSO 181742
TAFSMN
TAF
KSMN 181742Z 1818/1918 VRB03KT P6SM BKN130
      AMD NOT SKED=



000
FTUS45 KMSO 181742
TAFBTM
TAF
KBTM 181742Z 1818/1918 00000KT P6SM SKC
     FM181900 27008KT P6SM BKN140=



000
FTUS45 KMSO 181742
TAFMSO
TAF
KMSO 181742Z 1818/1918 11003KT P6SM FEW080
     FM191000 00000KT P6SM VCFG SKC
     FM191400 00000KT P6SM SKC=



000
FTUS45 KMSO 181742
TAFGPI
TAF
KGPI 181742Z 1818/1918 00000KT P6SM VCSH FEW060 OVC080
     FM182100 30005KT P6SM SCT080
     FM190900 00000KT P6SM VCFG SKC
     FM191400 00000KT P6SM SKC=



000
FTUS45 KMSO 181742
TAFGPI
TAF
KGPI 181742Z 1818/1918 00000KT P6SM VCSH FEW060 OVC080
     FM182100 30005KT P6SM SCT080
     FM190900 00000KT P6SM VCFG SKC
     FM191400 00000KT P6SM SKC=



000
FTUS45 KMSO 181742
TAFMSO
TAF
KMSO 181742Z 1818/1918 11003KT P6SM FEW080
     FM191000 00000KT P6SM VCFG SKC
     FM191400 00000KT P6SM SKC=



000
FTUS45 KMSO 181742
TAFBTM
TAF
KBTM 181742Z 1818/1918 00000KT P6SM SKC
     FM181900 27008KT P6SM BKN140=



000
FTUS45 KMSO 181742
TAFSMN
TAF
KSMN 181742Z 1818/1918 VRB03KT P6SM BKN130
      AMD NOT SKED=



000
FTUS45 KMSO 181120
TAFGPI
TAF
KGPI 181120Z 1812/1912 20004KT P6SM OVC100
     FM181300 19004KT P6SM OVC060
     FM181500 16004KT P6SM VCSH BKN040 OVC060
     FM181800 20006KT P6SM BKN070=



000
FTUS45 KMSO 181120
TAFSMN
TAF
KSMN 181120Z 1812/1912 VRB03KT P6SM BKN130
     FM181600 VRB03KT P6SM SKC
      AMD NOT SKED=



000
FTUS45 KMSO 181120
TAFMSO
TAF
KMSO 181120Z 1812/1912 VRB05KT P6SM BKN120 BKN250
     FM181500 VRB04KT P6SM BKN070 OVC100
     FM181800 29005KT P6SM BKN100=



000
FTUS45 KMSO 181120
TAFBTM
TAF
KBTM 181120Z 1812/1912 16005KT P6SM BKN120 BKN250
     FM181900 27008KT P6SM BKN140=



000
FTUS45 KMSO 181120
TAFBTM
TAF
KBTM 181120Z 1812/1912 16005KT P6SM BKN120 BKN250
     FM181900 27008KT P6SM BKN140=



000
FTUS45 KMSO 181120
TAFSMN
TAF
KSMN 181120Z 1812/1912 VRB03KT P6SM BKN130
     FM181600 VRB03KT P6SM SKC
      AMD NOT SKED=



000
FTUS45 KMSO 181120
TAFMSO
TAF
KMSO 181120Z 1812/1912 VRB05KT P6SM BKN120 BKN250
     FM181500 VRB04KT P6SM BKN070 OVC100
     FM181800 29005KT P6SM BKN100=



000
FTUS45 KMSO 181120
TAFGPI
TAF
KGPI 181120Z 1812/1912 20004KT P6SM OVC100
     FM181300 19004KT P6SM OVC060
     FM181500 16004KT P6SM VCSH BKN040 OVC060
     FM181800 20006KT P6SM BKN070=



000
FTUS45 KMSO 180524
TAFBTM
TAF
KBTM 180524Z 1806/1906 16005KT P6SM BKN120 BKN250=



000
FTUS45 KMSO 180524
TAFMSO
TAF
KMSO 180524Z 1806/1906 VRB05KT P6SM BKN120 BKN250=



000
FTUS45 KMSO 180524
TAFSMN
TAF
KSMN 180524Z 1806/1906 VRB03KT P6SM BKN130
      AMD NOT SKED=



000
FTUS45 KMSO 180524
TAFGPI
TAF
KGPI 180524Z 1806/1906 18004KT P6SM OVC100
     FM181100 15006KT P6SM OVC060
     FM181500 14006KT P6SM BKN040 OVC060=



000
FTUS45 KMSO 180233 AAA
TAFSMN
TAF AMD
KSMN 180233Z 1803/1824 VRB03KT P6SM BKN130
      AMD NOT SKED=



000
FTUS45 KMSO 172320
TAFMSO
TAF
KMSO 172320Z 1800/1824 VRB05KT P6SM BKN120 BKN250=



000
FTUS45 KMSO 172320
TAFBTM
TAF
KBTM 172320Z 1800/1824 16005KT P6SM BKN120 BKN250=



000
FTUS45 KMSO 172320
TAFGPI
TAF
KGPI 172320Z 1800/1824 18004KT P6SM BKN140 BKN250
     FM181100 19006KT P6SM BKN080 BKN120=



000
FTUS45 KMSO 172320
TAFSMN
TAF
KSMN 172320Z 1800/1824 VRB03KT P6SM BKN130
      AMD LTD TO CLD VIS AND WIND=



000
FTUS45 KMSO 172320
TAFMSO
TAF
KMSO 172320Z 1800/1824 VRB05KT P6SM BKN120 BKN250=



000
FTUS45 KMSO 172320
TAFBTM
TAF
KBTM 172320Z 1800/1824 16005KT P6SM BKN120 BKN250=



000
FTUS45 KMSO 172320
TAFGPI
TAF
KGPI 172320Z 1800/1824 18004KT P6SM BKN140 BKN250
     FM181100 19006KT P6SM BKN080 BKN120=



000
FTUS45 KMSO 172320
TAFSMN
TAF
KSMN 172320Z 1800/1824 VRB03KT P6SM BKN130
      AMD LTD TO CLD VIS AND WIND=



000
FTUS45 KMSO 171720
TAFBTM
TAF
KBTM 171720Z 1718/1818 VRB03KT P6SM SKC
     FM180000 16005KT P6SM BKN120 BKN250=



000
FTUS45 KMSO 171720
TAFMSO
TAF
KMSO 171720Z 1718/1818 VRB04KT P6SM SCT200
     FM172300 VRB05KT P6SM BKN120 BKN250=



000
FTUS45 KMSO 171720
TAFGPI
TAF
KGPI 171720Z 1718/1818 VRB04KT P6SM SCT250
     FM172300 18004KT P6SM BKN140 BKN250
     FM181000 19006KT P6SM BKN080 BKN120=



000
FTUS45 KMSO 171720
TAFSMN
TAF
KSMN 171720Z 1718/1818 VRB04KT P6SM SCT140 BKN250
     FM172100 VRB03KT P6SM BKN130
      AMD LTD TO CLD VIS AND WIND=



000
FTUS45 KMSO 171440 AAB
TAFMSO
TAF AMD
KMSO 171440Z 1715/1812 00000KT 5SM BR VCFG SKC
     FM171600 13005KT P6SM SCT200
     FM172300 VRB05KT P6SM OVC120=



000
FTUS45 KMSO 171423 AAA
TAFMSO
TAF AMD
KMSO 171423Z 1714/1812 00000KT 5SM BR VCFG SKC
      TEMPO 1714/1716 2SM BR FEW002
     FM171600 13005KT P6SM SCT200
     FM172300 VRB05KT P6SM OVC120=



000
FTUS45 KMSO 171122
TAFMSO
TAF
KMSO 171122Z 1712/1812 00000KT P6SM VCFG SKC
     FM171600 13005KT P6SM SCT200
     FM172300 VRB05KT P6SM OVC120=



000
FTUS45 KMSO 171122
TAFBTM
TAF
KBTM 171122Z 1712/1812 VRB03KT P6SM SKC
     FM180000 16005KT P6SM BKN140=



000
FTUS45 KMSO 171122
TAFSMN
TAF
KSMN 171122Z 1712/1812 VRB04KT P6SM SKC
     FM172100 VRB03KT P6SM BKN130
      AMD LTD TO CLD VIS AND WIND=



000
FTUS45 KMSO 171122
TAFMSO
TAF
KMSO 171122Z 1712/1812 00000KT P6SM VCFG SKC
     FM171600 13005KT P6SM SCT200
     FM172300 VRB05KT P6SM OVC120=



000
FTUS45 KMSO 171122
TAFGPI
TAF
KGPI 171122Z 1712/1812 VRB03KT P6SM VCFG SCT200
      TEMPO 1712/1714 3SM BR FEW001
     FM171500 VRB03KT P6SM SCT180
     FM172300 18004KT P6SM OVC120=



000
FTUS45 KMSO 171122
TAFBTM
TAF
KBTM 171122Z 1712/1812 VRB03KT P6SM SKC
     FM180000 16005KT P6SM BKN140=



000
FTUS45 KMSO 171122
TAFSMN
TAF
KSMN 171122Z 1712/1812 VRB04KT P6SM SKC
     FM172100 VRB03KT P6SM BKN130
      AMD LTD TO CLD VIS AND WIND=



000
FTUS45 KMSO 171122
TAFGPI
TAF
KGPI 171122Z 1712/1812 VRB03KT P6SM VCFG SCT200
      TEMPO 1712/1714 3SM BR FEW001
     FM171500 VRB03KT P6SM SCT180
     FM172300 18004KT P6SM OVC120=



000
FTUS45 KMSO 170532
TAFGPI
TAF
KGPI 170532Z 1706/1806 VRB04KT P6SM SCT200
     FM170900 VRB03KT P6SM VCFG SCT200
      TEMPO 1710/1712 2SM BR SCT001
     FM171500 VRB03KT P6SM SCT180
     FM172300 18004KT P6SM OVC120=



000
FTUS45 KMSO 170532
TAFMSO
TAF
KMSO 170532Z 1706/1806 VRB05KT P6SM SCT100
     FM171200 VRB03KT P6SM VCFG SKC
     FM171600 13005KT P6SM SCT200
     FM172300 VRB05KT P6SM OVC120=



000
FTUS45 KMSO 170532
TAFBTM
TAF
KBTM 170532Z 1706/1806 VRB02KT P6SM SKC
     FM180000 16005KT P6SM BKN140=



000
FTUS45 KMSO 170532
TAFSMN
TAF
KSMN 170532Z 1706/1806 00000KT P6SM SKC
     FM172100 VRB03KT P6SM BKN130
      AMD LTD TO CLD VIS AND WIND=



000
FTUS45 KMSO 170532
TAFMSO
TAF
KMSO 170532Z 1706/1806 VRB05KT P6SM SCT100
     FM171200 VRB03KT P6SM VCFG SKC
     FM171600 13005KT P6SM SCT200
     FM172300 VRB05KT P6SM OVC120=



000
FTUS45 KMSO 170532
TAFGPI
TAF
KGPI 170532Z 1706/1806 VRB04KT P6SM SCT200
     FM170900 VRB03KT P6SM VCFG SCT200
      TEMPO 1710/1712 2SM BR SCT001
     FM171500 VRB03KT P6SM SCT180
     FM172300 18004KT P6SM OVC120=



000
FTUS45 KMSO 170532
TAFSMN
TAF
KSMN 170532Z 1706/1806 00000KT P6SM SKC
     FM172100 VRB03KT P6SM BKN130
      AMD LTD TO CLD VIS AND WIND=



000
FTUS45 KMSO 170532
TAFBTM
TAF
KBTM 170532Z 1706/1806 VRB02KT P6SM SKC
     FM180000 16005KT P6SM BKN140=



    US Dept of Commerce
    National Oceanic and Atmospheric Administration
    National Weather Service
    1325 East West Highway
    Silver Spring, MD 20910
    Page Author: NWS Internet Services Team
Disclaimer
Information Quality
Credits
Glossary
Privacy Policy
Freedom of Information Act (FOIA)
About Us
Career Opportunities